Burdick, Kansas
Current Conditions -  °F | °C
As of 1:58 AM on Friday 28 Nov 2014 (Local Time) from KFRI Reporting Station
Clear Clear  
Wind Chill: 34°   Ceiling: Unl
Heat Index: 39°   Visibility: 10mi
Dew Point: 23°   Wind: 7mph
Humidity: 53%   Direction: 200°SSW
Pressure: 30.06"   Gusts: NA
Location:  38.56°N, 96.85°W
Report Text: KFRI 280758Z AUTO 20006KT 10SM CLR 04/M05 A3006 RMK AO2 DZE0712B0730 SLP183 P0000 T00371052
Loading
Personal Weather Stations






























Interactive Weather Map New forecast layout! Learn more

10-Day Weather Forecast

Advertisements
Track Severe Weather on mobile